createdAt,value
2023-04-25T00:01:56.048Z,13.52
2023-04-25T00:04:30.830Z,13.65
2023-04-25T00:07:04.174Z,13.59
2023-04-25T00:09:37.246Z,13.58
2023-04-25T00:12:10.761Z,13.57
2023-04-25T00:14:46.584Z,13.38
2023-04-25T00:17:20.309Z,13.45
2023-04-25T00:19:53.567Z,14.09
2023-04-25T00:22:26.444Z,13.57
2023-04-25T00:25:01.202Z,13.35
2023-04-25T00:27:34.406Z,13.71
2023-04-25T00:30:09.697Z,14.18
2023-04-25T00:32:42.672Z,14.61
2023-04-25T00:35:15.899Z,14.60
2023-04-25T00:37:48.853Z,14.37
2023-04-25T00:40:21.918Z,14.25
2023-04-25T00:42:55.360Z,13.98
2023-04-25T00:45:31.402Z,13.73
2023-04-25T00:48:05.315Z,13.35
2023-04-25T00:50:38.613Z,13.43
2023-04-25T00:53:11.915Z,13.60
2023-04-25T00:55:45.350Z,13.61
2023-04-25T00:58:18.589Z,13.49
2023-04-25T01:00:54.062Z,13.68
2023-04-25T01:03:29.790Z,14.11
2023-04-25T01:06:03.653Z,13.45
2023-04-25T01:08:37.450Z,13.17
2023-04-25T01:11:11.022Z,13.48
2023-04-25T01:13:44.088Z,13.94
2023-04-25T01:16:18.434Z,14.10
2023-04-25T01:18:52.353Z,13.50
2023-04-25T01:21:29.172Z,13.29
2023-04-25T01:24:02.561Z,13.12
2023-04-25T01:26:36.075Z,13.48
2023-04-25T01:29:09.784Z,13.60
2023-04-25T01:31:43.086Z,13.06
2023-04-25T01:34:16.097Z,13.02
2023-04-25T01:36:51.149Z,13.47
2023-04-25T01:39:24.248Z,13.85
2023-04-25T01:41:57.653Z,13.95
2023-04-25T01:44:30.896Z,13.71
2023-04-25T01:47:04.213Z,13.37
2023-04-25T01:49:37.153Z,13.26
2023-04-25T01:52:11.579Z,13.27
2023-04-25T01:54:45.837Z,13.48
2023-04-25T01:57:18.734Z,13.55
2023-04-25T01:59:52.239Z,13.81
2023-04-25T02:02:25.281Z,13.67
2023-04-25T02:04:58.194Z,13.19
2023-04-25T02:07:32.683Z,13.21
2023-04-25T02:10:06.569Z,13.10
2023-04-25T02:12:39.358Z,12.96
2023-04-25T02:15:12.821Z,12.98
2023-04-25T02:17:46.281Z,12.95
2023-04-25T02:20:19.232Z,12.81
2023-04-25T02:22:53.781Z,13.13
2023-04-25T02:25:27.046Z,13.11
2023-04-25T02:28:00.005Z,13.33
2023-04-25T02:30:32.953Z,12.85
2023-04-25T02:33:06.012Z,12.70
2023-04-25T02:35:39.023Z,12.95
2023-04-25T02:38:13.549Z,12.83
2023-04-25T02:40:46.742Z,13.02
2023-04-25T02:43:19.568Z,13.39
2023-04-25T02:45:52.396Z,13.07
2023-04-25T02:48:25.387Z,12.93
2023-04-25T02:50:58.380Z,13.09
2023-04-25T02:53:32.639Z,12.72
2023-04-25T02:56:06.294Z,12.59
2023-04-25T02:58:39.099Z,12.72
2023-04-25T03:01:12.176Z,12.74
2023-04-25T03:03:44.982Z,12.97
2023-04-25T03:06:17.874Z,12.92
2023-04-25T03:08:52.076Z,13.06
2023-04-25T03:11:27.192Z,12.67
2023-04-25T03:14:00.175Z,12.83
2023-04-25T03:16:33.147Z,13.13
2023-04-25T03:19:06.075Z,12.88
2023-04-25T03:21:39.480Z,13.07
2023-04-25T03:24:13.958Z,12.68
2023-04-25T03:26:46.986Z,12.54
2023-04-25T03:29:19.700Z,12.52
2023-04-25T03:31:52.668Z,12.33
2023-04-25T03:34:27.038Z,12.16
2023-04-25T03:36:59.923Z,12.33
2023-04-25T03:39:34.425Z,12.97
2023-04-25T03:42:07.500Z,12.58
2023-04-25T03:44:41.006Z,12.67
2023-04-25T03:47:13.776Z,12.58
2023-04-25T03:49:46.552Z,12.22
2023-04-25T03:52:19.455Z,12.21
2023-04-25T03:54:53.890Z,12.09
2023-04-25T03:57:27.215Z,12.22
2023-04-25T03:59:59.994Z,12.71
2023-04-25T04:02:34.263Z,13.04
2023-04-25T04:05:08.186Z,13.06
2023-04-25T04:07:43.599Z,12.96
2023-04-25T04:10:18.176Z,13.20
2023-04-25T04:12:51.142Z,13.01
2023-04-25T04:15:24.276Z,12.69
2023-04-25T04:17:57.202Z,12.62
2023-04-25T04:20:30.662Z,12.47
2023-04-25T04:23:04.216Z,12.70
2023-04-25T04:25:39.102Z,12.66
2023-04-25T04:28:12.242Z,12.87
2023-04-25T04:30:48.117Z,12.50
2023-04-25T04:33:21.107Z,12.88
2023-04-25T04:35:54.697Z,12.59
2023-04-25T04:38:27.745Z,12.64
2023-04-25T04:41:02.219Z,12.42
2023-04-25T04:43:35.190Z,12.35
2023-04-25T04:46:08.548Z,12.15
2023-04-25T04:48:41.628Z,12.18
2023-04-25T04:51:14.721Z,12.45
2023-04-25T04:53:47.825Z,12.69
2023-04-25T04:56:24.696Z,12.54
2023-04-25T04:58:58.163Z,12.47
2023-04-25T05:01:31.343Z,12.42
2023-04-25T05:04:04.976Z,12.54
2023-04-25T05:06:38.113Z,12.34
2023-04-25T05:09:11.567Z,12.32
2023-04-25T05:11:46.100Z,12.38
2023-04-25T05:14:19.140Z,12.38
2023-04-25T05:16:55.109Z,12.43
2023-04-25T05:19:28.096Z,12.56
2023-04-25T05:22:00.969Z,12.45
2023-04-25T05:24:34.200Z,12.84
2023-04-25T05:27:08.815Z,12.57
2023-04-25T05:29:41.697Z,12.62
2023-04-25T05:32:14.832Z,12.79
2023-04-25T05:34:48.222Z,12.88
2023-04-25T05:37:21.399Z,13.23
2023-04-25T05:39:54.693Z,13.43
2023-04-25T05:42:29.266Z,13.14
2023-04-25T05:45:02.063Z,13.23
2023-04-25T05:47:35.420Z,13.15
2023-04-25T05:50:09.697Z,13.24
2023-04-25T05:52:42.621Z,13.36
2023-04-25T05:55:16.677Z,13.63
2023-04-25T05:57:51.570Z,13.78
2023-04-25T06:00:25.021Z,13.93
2023-04-25T06:02:58.046Z,14.40
2023-04-25T06:05:31.499Z,14.50
2023-04-25T06:08:04.621Z,14.54
2023-04-25T06:10:38.281Z,14.45
2023-04-25T06:13:13.105Z,14.54
2023-04-25T06:15:46.178Z,14.10
2023-04-25T06:18:19.201Z,14.31
2023-04-25T06:20:52.081Z,14.35
2023-04-25T06:23:24.958Z,14.40
2023-04-25T06:25:58.102Z,14.23
2023-04-25T06:28:32.861Z,14.27
2023-04-25T06:31:05.984Z,14.36
2023-04-25T06:33:38.900Z,14.02
2023-04-25T06:36:11.835Z,14.28
2023-04-25T06:38:44.869Z,13.97
2023-04-25T06:41:18.156Z,14.06
2023-04-25T06:43:52.845Z,14.05
2023-04-25T06:46:26.098Z,13.95
2023-04-25T06:48:59.404Z,14.05
2023-04-25T06:51:32.504Z,14.17
2023-04-25T06:54:06.575Z,14.16
2023-04-25T06:56:39.847Z,14.50
2023-04-25T06:59:14.407Z,14.49
2023-04-25T07:01:47.867Z,14.06
2023-04-25T07:04:21.843Z,14.09
2023-04-25T07:06:55.916Z,14.27
2023-04-25T07:09:29.000Z,14.22
2023-04-25T07:12:02.645Z,14.22
2023-04-25T07:14:36.890Z,14.51
2023-04-25T07:17:09.963Z,14.67
2023-04-25T07:19:43.242Z,14.76
2023-04-25T07:22:16.348Z,14.61
2023-04-25T07:24:49.951Z,14.98
2023-04-25T07:27:23.137Z,14.83
2023-04-25T07:29:58.376Z,14.73
2023-04-25T07:32:31.641Z,14.92
2023-04-25T07:35:04.676Z,15.15
2023-04-25T07:37:37.633Z,15.31
2023-04-25T07:40:11.368Z,15.13
2023-04-25T07:42:44.606Z,15.05
2023-04-25T07:45:19.059Z,15.44
2023-04-25T07:47:52.288Z,15.56
2023-04-25T07:50:25.489Z,15.59
2023-04-25T07:52:58.519Z,15.69
2023-04-25T07:55:31.403Z,15.66
2023-04-25T07:58:05.626Z,15.92
2023-04-25T08:00:40.096Z,15.93
2023-04-25T08:03:13.611Z,16.13
2023-04-25T08:05:47.082Z,16.27
2023-04-25T08:08:20.270Z,16.34
2023-04-25T08:10:53.250Z,15.91
2023-04-25T08:13:26.438Z,15.81
2023-04-25T08:16:01.060Z,16.11
2023-04-25T08:18:33.935Z,16.00
2023-04-25T08:21:07.826Z,16.17
2023-04-25T08:23:40.646Z,16.41
2023-04-25T08:26:13.607Z,16.55
2023-04-25T08:28:46.688Z,16.67
2023-04-25T08:31:21.736Z,16.93
2023-04-25T08:33:54.662Z,16.98
2023-04-25T08:36:38.433Z,16.67
2023-04-25T08:39:12.674Z,16.85
2023-04-25T08:41:46.654Z,17.14
2023-04-25T08:44:19.532Z,17.31
2023-04-25T08:46:55.708Z,17.37
2023-04-25T08:49:28.660Z,17.47
2023-04-25T08:52:02.517Z,17.55
2023-04-25T08:54:38.341Z,17.57
2023-04-25T08:57:13.560Z,17.52
2023-04-25T08:59:47.719Z,17.52
2023-04-25T09:02:22.487Z,17.34
2023-04-25T09:04:57.210Z,17.31
2023-04-25T09:07:30.416Z,17.64
2023-04-25T09:10:04.529Z,17.72
2023-04-25T09:12:37.934Z,17.69
2023-04-25T09:15:12.344Z,17.73
2023-04-25T09:17:46.577Z,17.86
2023-04-25T09:20:21.975Z,17.68
2023-04-25T09:23:03.420Z,17.95
2023-04-25T09:25:37.756Z,18.07
2023-04-25T09:28:11.049Z,18.02
2023-04-25T09:30:44.353Z,17.75
2023-04-25T09:33:19.031Z,17.98
2023-04-25T09:35:56.258Z,17.83
2023-04-25T09:38:29.117Z,17.78
2023-04-25T09:41:03.243Z,17.73
2023-04-25T09:43:36.534Z,17.65
2023-04-25T09:46:10.881Z,17.89
2023-04-25T09:48:49.977Z,17.96
2023-04-25T09:51:27.859Z,18.10
2023-04-25T09:54:00.932Z,18.18
2023-04-25T09:56:37.997Z,18.27
2023-04-25T09:59:11.374Z,18.21
2023-04-25T10:01:45.607Z,18.10
2023-04-25T10:04:21.421Z,18.03
2023-04-25T10:06:55.857Z,18.06
2023-04-25T10:09:32.884Z,17.91
2023-04-25T10:12:06.127Z,17.66
2023-04-25T10:14:39.144Z,17.63
2023-04-25T10:17:13.555Z,17.38
2023-04-25T10:19:48.444Z,17.12
2023-04-25T10:22:25.564Z,17.00
2023-04-25T10:24:59.096Z,16.90
2023-04-25T10:27:32.175Z,16.74
2023-04-25T10:30:07.047Z,16.50
2023-04-25T10:32:40.139Z,16.24
2023-04-25T10:35:16.478Z,16.09
2023-04-25T10:37:59.936Z,15.98
2023-04-25T10:40:33.418Z,16.25
2023-04-25T10:43:25.113Z,15.89
2023-04-25T10:45:57.941Z,15.67
2023-04-25T10:48:32.506Z,15.57
2023-04-25T10:51:13.651Z,15.48
2023-04-25T10:53:47.157Z,15.39
2023-04-25T10:56:21.194Z,15.25
2023-04-25T10:58:54.288Z,15.23
2023-04-25T11:01:27.475Z,14.95
2023-04-25T11:04:00.700Z,14.72
2023-04-25T11:06:39.379Z,14.52
2023-04-25T11:09:14.597Z,14.51
2023-04-25T11:11:55.954Z,14.48
2023-04-25T11:14:29.112Z,14.49
2023-04-25T11:17:02.517Z,14.55
2023-04-25T11:19:36.010Z,14.97
2023-04-25T11:22:12.310Z,15.45
2023-04-25T11:24:45.210Z,15.70
2023-04-25T11:27:18.329Z,15.75
2023-04-25T11:29:51.135Z,15.43
2023-04-25T11:32:27.642Z,15.29
2023-04-25T11:35:01.158Z,15.47
2023-04-25T11:37:36.069Z,15.52
2023-04-25T11:40:10.661Z,15.89
2023-04-25T11:42:55.219Z,16.10
2023-04-25T11:45:28.683Z,16.27
2023-04-25T11:48:03.489Z,16.38
2023-04-25T11:50:36.694Z,16.40
2023-04-25T11:53:09.905Z,16.50
2023-04-25T11:55:42.993Z,16.74
2023-04-25T11:58:20.677Z,16.61
2023-04-25T12:00:53.594Z,16.88
2023-04-25T12:03:32.435Z,16.91
2023-04-25T12:06:06.500Z,16.97
2023-04-25T12:08:39.818Z,17.19
2023-04-25T12:11:22.793Z,17.24
2023-04-25T12:13:57.269Z,17.24
2023-04-25T12:16:30.162Z,17.35
2023-04-25T12:19:04.840Z,17.32
2023-04-25T12:21:46.974Z,17.28
2023-04-25T12:24:29.894Z,17.46
2023-04-25T12:27:04.317Z,17.45
2023-04-25T12:29:49.096Z,17.33
2023-04-25T12:32:22.876Z,17.47
2023-04-25T12:34:55.850Z,17.69
2023-04-25T12:37:31.099Z,17.86
2023-04-25T12:40:05.388Z,17.73
2023-04-25T12:42:38.224Z,17.74
2023-04-25T12:45:12.613Z,17.69
2023-04-25T12:47:45.476Z,17.61
2023-04-25T12:50:18.676Z,17.65
2023-04-25T12:52:51.678Z,17.56
2023-04-25T12:55:25.108Z,17.67
2023-04-25T12:57:58.070Z,17.55
2023-04-25T13:00:32.836Z,17.58
2023-04-25T13:03:05.990Z,17.79
2023-04-25T13:05:39.333Z,17.91
2023-04-25T13:08:12.526Z,17.81
2023-04-25T13:10:46.346Z,18.01
2023-04-25T13:13:19.531Z,18.04
2023-04-25T13:15:53.710Z,17.93
2023-04-25T13:18:27.498Z,18.06
2023-04-25T13:21:01.802Z,18.06
2023-04-25T13:23:34.869Z,18.04
2023-04-25T13:26:07.951Z,18.24
2023-04-25T13:28:42.940Z,18.18
2023-04-25T13:31:20.118Z,18.07
2023-04-25T13:33:53.256Z,18.08
2023-04-25T13:36:27.042Z,17.86
2023-04-25T13:39:00.099Z,17.93
2023-04-25T13:41:33.532Z,17.92
2023-04-25T13:44:06.601Z,17.98
2023-04-25T13:46:47.150Z,17.85
2023-04-25T13:49:21.109Z,17.87
2023-04-25T13:51:54.581Z,17.82
2023-04-25T13:54:27.793Z,17.94
2023-04-25T13:57:01.124Z,17.89
2023-04-25T13:59:34.164Z,17.80
2023-04-25T14:02:08.866Z,17.70
2023-04-25T14:04:42.980Z,17.50
2023-04-25T14:07:17.322Z,17.41
2023-04-25T14:09:50.597Z,17.16
2023-04-25T14:12:23.829Z,17.22
2023-04-25T14:14:57.126Z,17.08
2023-04-25T14:17:31.609Z,17.02
2023-04-25T14:20:06.880Z,16.92
2023-04-25T14:22:44.036Z,16.98
2023-04-25T14:25:16.918Z,17.10
2023-04-25T14:27:51.117Z,17.03
2023-04-25T14:30:24.160Z,16.94
2023-04-25T14:32:58.548Z,16.94
2023-04-25T14:35:31.598Z,16.89
2023-04-25T14:38:04.806Z,16.71
2023-04-25T14:40:38.672Z,16.75
2023-04-25T14:43:11.637Z,16.96
2023-04-25T14:45:44.516Z,17.09
2023-04-25T14:48:20.666Z,16.57
2023-04-25T14:50:53.981Z,16.46
2023-04-25T14:53:27.874Z,16.45
2023-04-25T14:56:00.860Z,16.36
2023-04-25T14:58:36.158Z,16.26
2023-04-25T15:01:09.419Z,16.19
2023-04-25T15:03:44.073Z,16.26
2023-04-25T15:06:17.595Z,16.18
2023-04-25T15:08:50.651Z,16.23
2023-04-25T15:11:23.526Z,16.43
2023-04-25T15:13:56.575Z,16.32
2023-04-25T15:16:29.780Z,16.41
2023-04-25T15:19:05.033Z,16.42
2023-04-25T15:21:38.277Z,16.37
2023-04-25T15:24:12.119Z,16.41
2023-04-25T15:26:46.398Z,16.20
2023-04-25T15:29:19.282Z,16.15
2023-04-25T15:31:52.442Z,16.03
2023-04-25T15:34:26.848Z,15.66
2023-04-25T15:37:00.236Z,15.64
2023-04-25T15:39:33.214Z,15.29
2023-04-25T15:42:06.066Z,15.13
2023-04-25T15:44:39.115Z,15.23
2023-04-25T15:47:12.166Z,14.96
2023-04-25T15:49:47.145Z,15.08
2023-04-25T15:52:21.956Z,15.11
2023-04-25T15:54:54.954Z,15.23
2023-04-25T15:57:27.822Z,15.17
2023-04-25T16:00:00.783Z,15.11
2023-04-25T16:02:33.795Z,14.84
2023-04-25T16:05:09.121Z,14.63
2023-04-25T16:07:43.475Z,14.43
2023-04-25T16:10:19.959Z,14.82
2023-04-25T16:12:52.804Z,14.66
2023-04-25T16:15:26.048Z,14.50
2023-04-25T16:17:59.407Z,14.80
2023-04-25T16:20:34.027Z,14.10
2023-04-25T16:23:07.264Z,14.06
2023-04-25T16:25:41.020Z,14.66
2023-04-25T16:28:14.129Z,14.77
2023-04-25T16:30:47.515Z,14.02
2023-04-25T16:33:20.400Z,14.14
2023-04-25T16:35:54.590Z,14.33
2023-04-25T16:38:28.281Z,14.20
2023-04-25T16:41:01.352Z,14.10
2023-04-25T16:43:34.506Z,13.93
2023-04-25T16:46:07.853Z,14.07
2023-04-25T16:48:40.673Z,14.17
2023-04-25T16:51:15.324Z,13.99
2023-04-25T16:53:48.618Z,14.26
2023-04-25T16:56:21.534Z,13.90
2023-04-25T16:58:54.447Z,14.10
2023-04-25T17:01:27.685Z,14.02
2023-04-25T17:04:01.587Z,14.02
2023-04-25T17:06:36.226Z,13.62
2023-04-25T17:09:10.547Z,13.52
2023-04-25T17:11:43.839Z,13.63
2023-04-25T17:14:16.716Z,13.65
2023-04-25T17:16:49.711Z,13.92
2023-04-25T17:19:23.150Z,13.60
2023-04-25T17:21:57.380Z,13.74
2023-04-25T17:24:30.778Z,13.82
2023-04-25T17:27:03.753Z,13.83
2023-04-25T17:29:36.588Z,13.77
2023-04-25T17:32:09.438Z,13.55
2023-04-25T17:34:43.670Z,13.51
2023-04-25T17:37:18.784Z,13.44
2023-04-25T17:39:52.238Z,13.55
2023-04-25T17:42:25.558Z,13.14
2023-04-25T17:44:58.391Z,13.26
2023-04-25T17:47:32.068Z,13.65
2023-04-25T17:50:05.419Z,14.07
2023-04-25T17:52:39.867Z,13.72
2023-04-25T17:55:13.155Z,13.41
2023-04-25T17:57:46.453Z,13.72
2023-04-25T18:00:19.781Z,13.65
2023-04-25T18:02:52.797Z,13.44
2023-04-25T18:05:25.863Z,13.44
2023-04-25T18:08:00.850Z,13.35
2023-04-25T18:10:35.119Z,13.23
2023-04-25T18:13:09.187Z,13.42
2023-04-25T18:15:42.179Z,14.21
2023-04-25T18:18:20.457Z,13.82
2023-04-25T18:20:53.760Z,13.76
2023-04-25T18:23:28.516Z,14.30
2023-04-25T18:26:03.545Z,14.20
2023-04-25T18:28:36.826Z,13.76
2023-04-25T18:31:11.865Z,14.17
2023-04-25T18:33:44.942Z,13.92
2023-04-25T18:36:33.077Z,13.29
2023-04-25T18:39:19.420Z,13.12
2023-04-25T18:42:03.244Z,13.10
2023-04-25T18:44:40.674Z,13.36
2023-04-25T18:47:14.245Z,13.41
2023-04-25T18:49:48.082Z,13.73
2023-04-25T18:52:21.457Z,14.37
2023-04-25T18:54:55.952Z,13.75
2023-04-25T18:57:29.052Z,13.48
2023-04-25T19:00:05.599Z,13.89
2023-04-25T19:02:38.931Z,14.29
2023-04-25T19:05:12.751Z,14.25
2023-04-25T19:07:47.347Z,14.09
2023-04-25T19:10:21.761Z,13.58
2023-04-25T19:12:55.232Z,13.97
2023-04-25T19:15:28.635Z,13.80
2023-04-25T19:18:02.156Z,13.35
2023-04-25T19:20:35.988Z,13.49
2023-04-25T19:23:10.708Z,13.12
2023-04-25T19:25:45.249Z,13.11
2023-04-25T19:28:18.336Z,13.42
2023-04-25T19:30:52.383Z,13.07
2023-04-25T19:33:25.509Z,13.28
2023-04-25T19:35:58.693Z,13.55
2023-04-25T19:38:31.769Z,14.01
2023-04-25T19:41:06.634Z,14.01
2023-04-25T19:43:39.878Z,13.96
2023-04-25T19:46:13.026Z,13.37
2023-04-25T19:48:46.980Z,13.17
2023-04-25T19:51:21.492Z,13.52
2023-04-25T19:53:54.970Z,13.44
2023-04-25T19:56:29.824Z,13.29
2023-04-25T19:59:03.156Z,13.11
2023-04-25T20:01:36.427Z,12.53
2023-04-25T20:04:09.552Z,13.07
2023-04-25T20:06:43.036Z,12.84
2023-04-25T20:09:16.543Z,12.92
2023-04-25T20:11:51.390Z,13.57
2023-04-25T20:14:24.479Z,13.52
2023-04-25T20:16:57.362Z,13.32
2023-04-25T20:19:30.271Z,13.30
2023-04-25T20:22:03.777Z,13.07
2023-04-25T20:24:36.869Z,12.88
2023-04-25T20:27:11.373Z,13.13
2023-04-25T20:29:44.385Z,13.00
2023-04-25T20:32:17.552Z,13.18
2023-04-25T20:34:50.790Z,12.81
2023-04-25T20:37:23.848Z,12.82
2023-04-25T20:39:56.927Z,12.83
2023-04-25T20:42:32.093Z,12.77
2023-04-25T20:45:07.539Z,12.95
2023-04-25T20:47:40.824Z,13.03
2023-04-25T20:50:13.641Z,13.15
2023-04-25T20:52:46.980Z,12.85
2023-04-25T20:55:20.623Z,12.98
2023-04-25T20:57:55.060Z,13.27
2023-04-25T21:00:29.282Z,13.58
2023-04-25T21:03:03.219Z,13.42
2023-04-25T21:05:36.523Z,13.48
2023-04-25T21:08:09.707Z,13.50
2023-04-25T21:10:42.607Z,12.74
2023-04-25T21:13:17.293Z,12.71
2023-04-25T21:15:50.374Z,12.73
2023-04-25T21:18:23.187Z,13.06
2023-04-25T21:20:56.008Z,13.21
2023-04-25T21:23:29.678Z,12.77
2023-04-25T21:26:02.904Z,12.76
2023-04-25T21:28:37.140Z,12.69
2023-04-25T21:31:11.194Z,12.56
2023-04-25T21:33:44.145Z,12.68
2023-04-25T21:36:17.108Z,12.71
2023-04-25T21:38:50.412Z,12.56
2023-04-25T21:41:23.967Z,12.45
2023-04-25T21:43:58.494Z,12.76
2023-04-25T21:46:31.263Z,12.90
2023-04-25T21:49:04.133Z,12.89
2023-04-25T21:51:37.422Z,12.69
2023-04-25T21:54:10.966Z,12.95
2023-04-25T21:56:44.024Z,12.89
2023-04-25T21:59:18.383Z,12.86
2023-04-25T22:01:51.675Z,12.58
2023-04-25T22:04:24.871Z,12.65
2023-04-25T22:06:58.064Z,12.73
2023-04-25T22:09:34.653Z,12.73
2023-04-25T22:12:11.744Z,12.76
2023-04-25T22:14:46.717Z,12.71
2023-04-25T22:17:19.910Z,12.64
2023-04-25T22:19:53.096Z,12.80
2023-04-25T22:22:26.473Z,12.86
2023-04-25T22:24:59.767Z,12.99
2023-04-25T22:27:33.793Z,12.73
2023-04-25T22:30:09.446Z,12.80
2023-04-25T22:32:42.905Z,12.85
2023-04-25T22:35:16.059Z,12.79
2023-04-25T22:37:49.188Z,12.58
2023-04-25T22:40:22.074Z,12.66
2023-04-25T22:42:55.090Z,12.67
2023-04-25T22:45:29.479Z,12.70
2023-04-25T22:48:02.446Z,12.64
2023-04-25T22:50:35.646Z,12.78
2023-04-25T22:53:10.213Z,12.75
2023-04-25T22:55:44.348Z,12.68
2023-04-25T22:58:17.461Z,12.62
2023-04-25T23:00:52.452Z,12.56
2023-04-25T23:03:25.818Z,12.46
2023-04-25T23:06:00.464Z,12.48
2023-04-25T23:08:33.435Z,12.41
2023-04-25T23:11:06.909Z,12.51
2023-04-25T23:13:40.377Z,12.29
2023-04-25T23:16:14.773Z,12.58
2023-04-25T23:18:47.561Z,12.64
2023-04-25T23:21:21.548Z,12.63
2023-04-25T23:23:54.694Z,12.59
2023-04-25T23:26:28.927Z,12.52
2023-04-25T23:29:02.261Z,12.36
2023-04-25T23:31:36.893Z,12.64
2023-04-25T23:34:09.850Z,12.50
2023-04-25T23:36:42.930Z,12.38
2023-04-25T23:39:18.915Z,12.44
2023-04-25T23:41:51.841Z,12.47
2023-04-25T23:44:24.714Z,12.29
2023-04-25T23:46:58.946Z,12.27
2023-04-25T23:49:33.678Z,12.09
2023-04-25T23:52:06.947Z,12.04
2023-04-25T23:54:39.785Z,11.91
2023-04-25T23:57:13.556Z,11.93
2023-04-25T23:59:46.307Z,11.85
